Time;durP1;ratioP1;P1;durP2;ratioP2;P2;SDS_P1;SDS_P2;PMS_P1;PMS_P2;Temp;Humidity;BMP_temperature;BMP_pressure;BME280_temperature;BME280_humidity;BME280_pressure;Samples;Min_cycle;Max_cycle;Signal;HPM_P1;HPM_P2
2023/04/29 00:01:24;;;;;;;26.63;22.10;;;11.40;99.90;;;;;;5062282;28;20465;-63
2023/04/29 00:03:53;;;;;;;30.60;23.27;;;11.30;99.90;;;;;;5056984;28;20560;-63
2023/04/29 00:06:21;;;;;;;29.27;21.70;;;11.30;99.90;;;;;;5056255;28;20561;-63
2023/04/29 00:08:48;;;;;;;29.60;22.27;;;11.20;99.90;;;;;;5056319;28;20462;-63
2023/04/29 00:11:15;;;;;;;26.70;21.80;;;11.30;99.90;;;;;;5056152;28;20462;-63
2023/04/29 00:13:42;;;;;;;29.30;24.00;;;11.20;99.90;;;;;;5056645;28;20519;-63
2023/04/29 00:16:10;;;;;;;32.27;25.77;;;11.20;99.90;;;;;;5056238;28;21026;-63
2023/04/29 00:18:37;;;;;;;34.50;25.60;;;11.30;99.90;;;;;;5056220;28;20469;-62
2023/04/29 00:21:06;;;;;;;35.87;25.93;;;11.20;99.90;;;;;;5056465;28;20818;-62
2023/04/29 00:23:34;;;;;;;31.43;24.73;;;11.30;99.90;;;;;;5056968;28;20485;-62
2023/04/29 00:26:01;;;;;;;34.50;26.67;;;11.30;99.90;;;;;;5056634;28;20464;-62
2023/04/29 00:28:28;;;;;;;39.37;29.03;;;11.30;99.90;;;;;;5056153;28;20576;-63
2023/04/29 00:30:55;;;;;;;41.50;29.80;;;11.30;99.90;;;;;;5056472;28;20471;-63
2023/04/29 00:33:23;;;;;;;42.37;30.23;;;11.30;99.90;;;;;;5056455;28;20900;-63
2023/04/29 00:35:50;;;;;;;40.60;29.50;;;11.20;99.90;;;;;;5056396;28;20498;-62
2023/04/29 00:38:20;;;;;;;37.80;29.90;;;11.20;99.90;;;;;;5058842;28;20922;-62
2023/04/29 00:40:47;;;;;;;37.17;29.47;;;11.20;99.90;;;;;;5059711;28;20501;-62
2023/04/29 00:43:14;;;;;;;36.13;27.40;;;11.20;99.90;;;;;;5060170;28;20949;-63
2023/04/29 00:45:41;;;;;;;35.03;27.23;;;11.20;99.90;;;;;;5060206;28;20557;-63
2023/04/29 00:48:08;;;;;;;37.70;28.83;;;11.10;99.90;;;;;;5059336;28;20464;-63
2023/04/29 00:50:36;;;;;;;40.13;28.87;;;11.20;99.90;;;;;;5059746;28;20462;-63
2023/04/29 00:53:04;;;;;;;40.77;27.60;;;11.10;99.90;;;;;;5059817;28;20468;-63
2023/04/29 00:55:33;;;;;;;36.63;28.90;;;11.20;99.90;;;;;;5059710;28;20529;-63
2023/04/29 00:58:01;;;;;;;39.37;29.13;;;11.20;99.90;;;;;;5059308;28;20936;-63
2023/04/29 01:00:29;;;;;;;40.00;28.80;;;11.10;99.90;;;;;;5059435;28;20825;-63
2023/04/29 01:02:58;;;;;;;39.90;29.23;;;11.10;99.90;;;;;;5059683;28;20914;-63
2023/04/29 01:05:25;;;;;;;38.93;28.30;;;11.10;99.90;;;;;;5060184;28;20474;-63
2023/04/29 01:08:09;;;;;;;39.83;30.10;;;11.10;99.90;;;;;;5079535;28;20488;-63
2023/04/29 01:10:45;;;;;;;35.63;28.33;;;11.20;99.90;;;;;;5079558;28;20798;-63
2023/04/29 01:13:19;;;;;;;34.70;27.10;;;11.00;99.90;;;;;;5079510;28;20841;-63
2023/04/29 01:15:51;;;;;;;37.40;27.47;;;10.90;99.90;;;;;;5079756;28;20934;-63
2023/04/29 01:18:25;;;;;;;34.90;27.90;;;10.90;99.90;;;;;;5079388;28;20547;-63
2023/04/29 01:20:53;;;;;;;34.97;27.03;;;10.80;99.90;;;;;;5079281;28;20555;-63
2023/04/29 01:23:22;;;;;;;39.20;29.10;;;10.70;99.90;;;;;;5079235;28;20778;-63
2023/04/29 01:25:50;;;;;;;42.17;28.77;;;10.70;99.90;;;;;;5079448;28;20470;-63
2023/04/29 01:28:39;;;;;;;47.50;32.70;;;10.50;99.90;;;;;;5078760;28;20592;-63
2023/04/29 01:31:12;;;;;;;43.17;32.63;;;10.50;99.90;;;;;;5079182;28;20843;-63
2023/04/29 01:33:46;;;;;;;45.20;32.47;;;10.50;99.90;;;;;;5079224;28;20798;-63
2023/04/29 01:36:23;;;;;;;49.50;34.27;;;10.50;99.90;;;;;;5079261;28;20493;-63
2023/04/29 01:39:00;;;;;;;47.77;32.43;;;10.30;99.90;;;;;;5078853;28;20810;-63
2023/04/29 01:41:44;;;;;;;51.50;33.90;;;10.30;99.90;;;;;;5062728;28;20462;-63
2023/04/29 01:44:18;;;;;;;51.20;33.43;;;10.30;99.90;;;;;;5058539;28;20906;-63
2023/04/29 01:46:50;;;;;;;51.90;34.57;;;10.30;99.90;;;;;;5058809;28;20541;-62
2023/04/29 01:49:21;;;;;;;56.47;34.60;;;10.20;99.90;;;;;;5058575;28;20436;-63
2023/04/29 01:51:48;;;;;;;52.47;34.07;;;10.20;99.90;;;;;;5059004;28;20726;-62
2023/04/29 01:54:15;;;;;;;53.00;34.70;;;10.20;99.90;;;;;;5058396;28;20824;-62
2023/04/29 01:56:44;;;;;;;55.40;35.43;;;10.20;99.90;;;;;;5058460;28;20537;-62
2023/04/29 01:59:11;;;;;;;55.57;35.23;;;10.20;99.90;;;;;;5058362;28;20553;-62
2023/04/29 02:01:38;;;;;;;63.30;35.93;;;10.20;99.90;;;;;;5058585;28;20489;-61
2023/04/29 02:04:06;;;;;;;60.23;37.23;;;10.10;99.90;;;;;;5058520;28;20555;-62
2023/04/29 02:06:33;;;;;;;66.03;39.53;;;10.10;99.90;;;;;;5058196;28;20805;-62
2023/04/29 02:09:00;;;;;;;63.93;36.27;;;10.10;99.90;;;;;;5058390;28;20542;-61
2023/04/29 02:11:28;;;;;;;65.87;37.57;;;9.90;99.90;;;;;;5058447;28;20561;-60
2023/04/29 02:13:56;;;;;;;66.37;39.80;;;10.00;99.90;;;;;;5058552;28;20513;-61
2023/04/29 02:16:23;;;;;;;67.63;38.93;;;10.00;99.90;;;;;;5057910;28;20556;-62
2023/04/29 02:18:51;;;;;;;62.53;37.97;;;10.00;99.90;;;;;;5068500;28;20947;-61
2023/04/29 02:21:18;;;;;;;63.97;38.80;;;9.90;99.90;;;;;;5078032;28;20559;-61
2023/04/29 02:23:45;;;;;;;69.87;40.50;;;9.90;99.90;;;;;;5078052;28;20461;-61
2023/04/29 02:26:14;;;;;;;67.30;38.80;;;9.90;99.90;;;;;;5077453;28;20462;-62
2023/04/29 02:28:41;;;;;;;69.03;38.77;;;9.90;99.90;;;;;;5077739;28;20488;-62
2023/04/29 02:31:10;;;;;;;65.93;40.00;;;9.90;99.90;;;;;;5078217;28;20493;-60
2023/04/29 02:33:37;;;;;;;72.50;41.90;;;10.00;99.90;;;;;;5077960;28;20887;-61
2023/04/29 02:36:05;;;;;;;68.67;38.30;;;10.00;99.90;;;;;;5077757;28;20587;-62
2023/04/29 02:38:32;;;;;;;60.77;35.60;;;10.00;99.90;;;;;;5077580;28;20489;-61
2023/04/29 02:41:00;;;;;;;55.47;36.60;;;10.00;99.90;;;;;;5074382;28;20572;-62
2023/04/29 02:43:29;;;;;;;53.23;33.63;;;9.90;99.90;;;;;;5077910;28;20556;-59
2023/04/29 02:45:57;;;;;;;55.77;34.93;;;9.90;99.90;;;;;;5076029;28;20497;-61
2023/04/29 02:48:25;;;;;;;60.93;36.20;;;9.90;99.90;;;;;;5077229;28;20465;-61
2023/04/29 02:50:52;;;;;;;62.10;35.00;;;9.90;99.90;;;;;;5077670;28;20485;-61
2023/04/29 02:53:20;;;;;;;62.03;36.93;;;9.90;99.90;;;;;;5077400;28;20461;-61
2023/04/29 02:55:48;;;;;;;63.60;38.80;;;9.90;99.90;;;;;;5077244;28;20468;-60
2023/04/29 02:58:15;;;;;;;64.90;38.80;;;9.80;99.90;;;;;;5077463;28;20794;-62
2023/04/29 03:00:42;;;;;;;67.10;39.73;;;9.80;99.90;;;;;;5077016;28;20497;-62
2023/04/29 03:03:10;;;;;;;68.63;38.67;;;9.80;99.90;;;;;;5077566;28;20510;-62
2023/04/29 03:05:38;;;;;;;64.17;38.10;;;9.80;99.90;;;;;;5077282;28;20453;-62
2023/04/29 03:08:06;;;;;;;71.97;39.93;;;9.70;99.90;;;;;;5077515;28;20519;-62
2023/04/29 03:10:33;;;;;;;65.20;37.50;;;9.70;99.90;;;;;;5077165;28;20466;-62
2023/04/29 03:13:00;;;;;;;76.47;42.43;;;9.60;99.90;;;;;;5077336;28;20465;-62
2023/04/29 03:15:28;;;;;;;71.87;40.10;;;9.60;99.90;;;;;;5075954;28;20548;-62
2023/04/29 03:17:55;;;;;;;84.10;43.97;;;9.60;99.90;;;;;;5074546;28;20465;-62
2023/04/29 03:20:23;;;;;;;80.53;45.13;;;9.50;99.90;;;;;;5075845;28;20515;-62
2023/04/29 03:22:52;;;;;;;77.60;42.67;;;9.60;99.90;;;;;;5076786;28;20560;-62
2023/04/29 03:25:19;;;;;;;70.00;38.33;;;9.50;99.90;;;;;;5076047;28;20476;-62
2023/04/29 03:27:46;;;;;;;66.30;36.60;;;9.40;99.90;;;;;;5075973;28;20572;-62
2023/04/29 03:30:13;;;;;;;60.43;35.63;;;9.40;99.90;;;;;;5075024;28;20553;-61
2023/04/29 03:32:40;;;;;;;48.33;30.43;;;9.30;99.90;;;;;;5075292;28;20465;-62
2023/04/29 03:35:10;;;;;;;47.03;28.50;;;9.30;99.90;;;;;;5076182;28;20856;-61
2023/04/29 03:37:37;;;;;;;53.90;31.47;;;9.30;99.90;;;;;;5073111;28;20937;-62
2023/04/29 03:40:07;;;;;;;50.37;29.63;;;9.30;99.90;;;;;;5075759;28;20465;-62
2023/04/29 03:42:35;;;;;;;39.00;26.77;;;9.30;99.90;;;;;;5076143;28;20966;-62
2023/04/29 03:45:02;;;;;;;42.70;27.97;;;9.30;99.90;;;;;;5065190;28;20453;-62
2023/04/29 03:47:29;;;;;;;34.97;23.00;;;9.20;99.90;;;;;;5076103;28;20555;-62
2023/04/29 03:49:57;;;;;;;41.33;27.20;;;9.20;99.90;;;;;;5076325;28;20456;-62
2023/04/29 03:52:24;;;;;;;37.60;25.27;;;9.20;99.90;;;;;;5076481;28;20457;-62
2023/04/29 03:54:51;;;;;;;40.00;26.40;;;9.30;99.90;;;;;;5076687;28;20571;-61
2023/04/29 03:57:20;;;;;;;39.07;24.90;;;9.30;99.90;;;;;;5075480;28;20499;-62
2023/04/29 03:59:49;;;;;;;33.70;24.40;;;9.20;99.90;;;;;;5076731;28;20918;-62
2023/04/29 04:02:16;;;;;;;37.47;23.43;;;9.20;99.90;;;;;;5076317;28;20523;-62
2023/04/29 04:04:43;;;;;;;30.50;21.20;;;9.20;99.90;;;;;;5076287;28;20461;-62
2023/04/29 04:07:10;;;;;;;28.17;19.20;;;9.10;99.90;;;;;;5076678;28;20692;-62
2023/04/29 04:09:37;;;;;;;31.00;21.20;;;9.10;99.90;;;;;;5076799;28;20519;-62
2023/04/29 04:12:06;;;;;;;36.13;22.50;;;9.10;99.90;;;;;;5077050;28;20462;-61
2023/04/29 04:14:35;;;;;;;32.10;19.87;;;9.00;99.90;;;;;;5079474;28;20901;-62
2023/04/29 04:17:02;;;;;;;30.83;20.83;;;9.10;99.90;;;;;;5080007;28;20525;-61
2023/04/29 04:19:31;;;;;;;32.17;18.77;;;9.10;99.90;;;;;;5080476;28;20493;-62
2023/04/29 04:21:58;;;;;;;33.03;22.03;;;9.10;99.90;;;;;;5079079;28;20465;-62
2023/04/29 04:24:26;;;;;;;31.37;21.30;;;9.10;99.90;;;;;;5079947;28;20468;-60
2023/04/29 04:26:53;;;;;;;33.83;21.97;;;9.10;99.90;;;;;;5079848;28;20499;-61
2023/04/29 04:29:20;;;;;;;34.23;22.80;;;9.20;99.90;;;;;;5080090;28;20459;-62
2023/04/29 04:31:49;;;;;;;30.60;21.53;;;9.10;99.90;;;;;;5080183;28;20561;-62
2023/04/29 04:34:16;;;;;;;27.03;19.93;;;9.10;99.90;;;;;;5080206;28;20905;-61
2023/04/29 04:36:43;;;;;;;30.20;22.90;;;9.10;99.90;;;;;;5079626;28;20488;-60
2023/04/29 04:39:10;;;;;;;33.80;22.90;;;9.10;99.90;;;;;;5080024;28;20913;-61
2023/04/29 04:41:38;;;;;;;30.53;20.70;;;9.10;99.90;;;;;;5080133;28;20435;-60
2023/04/29 04:44:05;;;;;;;35.77;21.47;;;9.10;99.90;;;;;;5080353;28;20461;-60
2023/04/29 04:46:33;;;;;;;29.87;19.73;;;9.10;99.90;;;;;;5079627;28;20730;-61
2023/04/29 04:49:01;;;;;;;31.23;21.10;;;9.20;99.90;;;;;;5079008;28;20465;-60
2023/04/29 04:51:28;;;;;;;29.50;20.10;;;9.20;99.90;;;;;;5079807;28;20563;-61
2023/04/29 04:53:56;;;;;;;25.30;19.37;;;9.10;99.90;;;;;;5079692;28;20468;-60
2023/04/29 04:56:23;;;;;;;30.87;20.00;;;9.20;99.90;;;;;;5079389;28;20528;-60
2023/04/29 04:58:50;;;;;;;29.47;19.37;;;9.20;99.90;;;;;;5078989;28;20465;-60
2023/04/29 05:01:17;;;;;;;31.40;21.10;;;9.20;99.90;;;;;;5079117;28;20462;-60
2023/04/29 05:03:44;;;;;;;28.33;21.00;;;9.10;99.90;;;;;;5080057;28;20457;-62
2023/04/29 05:06:13;;;;;;;28.97;20.07;;;9.20;99.90;;;;;;5078301;28;20466;-62
2023/04/29 05:08:40;;;;;;;26.13;18.13;;;9.20;99.90;;;;;;5079503;28;20469;-59
2023/04/29 05:11:15;;;;;;;23.87;18.47;;;9.20;99.90;;;;;;5079075;28;20563;-62
2023/04/29 05:13:42;;;;;;;28.50;18.30;;;9.10;99.90;;;;;;5078706;28;20763;-60
2023/04/29 05:16:09;;;;;;;26.63;18.63;;;9.10;99.90;;;;;;5077852;28;20487;-59
2023/04/29 05:18:36;;;;;;;24.40;18.90;;;9.10;99.90;;;;;;5078363;28;20468;-61
2023/04/29 05:21:04;;;;;;;26.50;18.60;;;9.10;99.90;;;;;;5078337;28;20545;-58
2023/04/29 05:23:33;;;;;;;27.63;19.37;;;9.20;99.90;;;;;;5077203;28;20444;-61
2023/04/29 05:26:00;;;;;;;24.53;17.27;;;9.10;99.90;;;;;;5077254;28;20449;-61
2023/04/29 05:28:27;;;;;;;19.97;15.93;;;9.10;99.90;;;;;;5076116;28;20580;-61
2023/04/29 05:30:55;;;;;;;25.57;16.90;;;9.20;99.90;;;;;;5076451;28;20469;-61
2023/04/29 05:33:22;;;;;;;21.97;16.80;;;9.20;99.90;;;;;;5076781;28;20462;-62
2023/04/29 05:35:49;;;;;;;23.70;16.70;;;9.20;99.90;;;;;;5076683;28;20462;-61
2023/04/29 05:38:16;;;;;;;22.90;17.00;;;9.10;99.90;;;;;;5077434;28;20500;-61
2023/04/29 05:40:45;;;;;;;22.77;16.53;;;9.20;99.90;;;;;;5078728;28;20440;-61
2023/04/29 05:43:12;;;;;;;23.87;18.37;;;9.10;99.90;;;;;;5078675;28;20965;-62
2023/04/29 05:45:39;;;;;;;25.47;19.37;;;9.10;99.90;;;;;;5078088;28;20436;-61
2023/04/29 05:48:06;;;;;;;31.07;21.27;;;9.10;99.90;;;;;;5078368;28;20930;-61
2023/04/29 05:50:35;;;;;;;34.13;22.37;;;9.30;99.90;;;;;;5077636;28;20515;-64
2023/04/29 05:53:03;;;;;;;33.43;24.20;;;9.10;99.90;;;;;;5077739;28;20472;-63
2023/04/29 05:55:30;;;;;;;32.10;23.80;;;9.10;99.90;;;;;;5078234;28;20941;-63
2023/04/29 05:57:59;;;;;;;36.43;23.40;;;9.20;99.90;;;;;;5078292;28;20588;-64
2023/04/29 06:00:26;;;;;;;32.80;23.60;;;9.20;99.90;;;;;;5078625;28;20831;-63
2023/04/29 06:02:53;;;;;;;31.43;23.10;;;9.10;99.90;;;;;;5078434;28;20469;-63
2023/04/29 06:05:20;;;;;;;32.40;24.23;;;9.30;99.90;;;;;;5078679;28;20462;-63
2023/04/29 06:07:48;;;;;;;36.67;25.30;;;9.40;99.90;;;;;;5078083;28;20445;-63
2023/04/29 06:10:15;;;;;;;38.17;26.83;;;9.30;99.90;;;;;;5077136;28;20461;-63
2023/04/29 06:12:43;;;;;;;32.90;25.07;;;9.30;99.90;;;;;;5078181;28;20874;-63
2023/04/29 06:15:12;;;;;;;32.20;25.60;;;9.30;99.90;;;;;;5078363;28;20461;-63
2023/04/29 06:17:39;;;;;;;33.60;26.77;;;9.40;99.90;;;;;;5076791;28;20929;-63
2023/04/29 06:20:07;;;;;;;35.87;27.90;;;9.20;99.90;;;;;;5076271;28;20864;-63
2023/04/29 06:22:35;;;;;;;39.60;27.43;;;9.20;99.90;;;;;;5077994;28;20483;-63
2023/04/29 06:25:02;;;;;;;38.17;28.17;;;9.20;99.90;;;;;;5078187;28;20457;-63
2023/04/29 06:27:29;;;;;;;36.10;28.97;;;9.30;99.90;;;;;;5077960;28;20575;-63
2023/04/29 06:29:56;;;;;;;35.90;27.10;;;9.20;99.90;;;;;;5078339;28;20471;-62
2023/04/29 06:32:25;;;;;;;36.67;29.23;;;9.10;99.90;;;;;;5078243;28;20738;-63
2023/04/29 06:34:52;;;;;;;35.10;27.63;;;9.10;99.90;;;;;;5077093;28;20568;-63
2023/04/29 06:37:19;;;;;;;28.53;23.57;;;9.20;99.90;;;;;;5077649;28;20537;-63
2023/04/29 06:39:47;;;;;;;35.63;27.60;;;9.20;99.90;;;;;;5077362;28;20560;-62
2023/04/29 06:42:14;;;;;;;30.93;25.43;;;9.30;99.90;;;;;;5077781;28;20461;-60
2023/04/29 06:44:41;;;;;;;31.63;24.40;;;9.20;99.90;;;;;;5077383;28;20461;-58
2023/04/29 06:47:08;;;;;;;27.37;23.40;;;9.40;99.90;;;;;;5077799;28;20559;-62
2023/04/29 06:49:37;;;;;;;28.50;22.30;;;9.30;99.90;;;;;;5077742;28;20759;-60
2023/04/29 06:52:04;;;;;;;31.43;24.07;;;9.30;99.90;;;;;;5077668;28;20556;-60
2023/04/29 06:54:32;;;;;;;26.60;22.37;;;9.30;99.90;;;;;;5077523;28;20836;-60
2023/04/29 06:56:59;;;;;;;26.30;21.03;;;9.30;99.90;;;;;;5077255;28;20498;-61
2023/04/29 06:59:26;;;;;;;28.33;22.40;;;9.30;99.90;;;;;;5077925;28;20461;-61
2023/04/29 07:01:53;;;;;;;24.60;21.27;;;9.40;99.90;;;;;;5077845;28;20552;-58
2023/04/29 07:04:20;;;;;;;27.00;22.10;;;9.40;99.90;;;;;;5077285;28;20483;-62
2023/04/29 07:06:50;;;;;;;27.13;22.37;;;9.50;99.90;;;;;;5077126;28;20548;-61
2023/04/29 07:09:17;;;;;;;27.40;23.30;;;9.60;99.90;;;;;;5077435;28;20471;-59
2023/04/29 07:11:44;;;;;;;29.03;23.97;;;9.60;99.90;;;;;;5076924;28;20488;-61
2023/04/29 07:14:11;;;;;;;27.10;23.00;;;9.70;99.90;;;;;;5077159;28;20436;-61
2023/04/29 07:16:38;;;;;;;30.50;24.10;;;9.90;99.90;;;;;;5077344;28;20761;-61
2023/04/29 07:19:05;;;;;;;30.40;22.87;;;9.80;99.90;;;;;;5076869;28;20489;-60
2023/04/29 07:21:33;;;;;;;28.47;21.20;;;9.90;99.90;;;;;;5077480;28;20461;-61
2023/04/29 07:24:03;;;;;;;24.77;21.93;;;9.70;99.90;;;;;;5077322;28;20500;-60
2023/04/29 07:26:31;;;;;;;26.90;23.00;;;9.80;99.90;;;;;;5077066;28;20735;-59
2023/04/29 07:28:58;;;;;;;25.97;21.30;;;10.00;99.90;;;;;;5076221;28;20583;-62
2023/04/29 07:31:25;;;;;;;34.10;24.17;;;10.00;99.90;;;;;;5077392;28;20465;-60
2023/04/29 07:33:54;;;;;;;33.80;25.53;;;10.00;99.90;;;;;;5077148;28;20530;-62
2023/04/29 07:36:21;;;;;;;30.97;25.87;;;10.00;99.90;;;;;;5076992;28;20464;-61
2023/04/29 07:38:48;;;;;;;29.33;22.80;;;9.90;99.90;;;;;;5076433;28;20489;-61
2023/04/29 07:41:17;;;;;;;31.50;26.10;;;9.90;99.90;;;;;;5075990;28;20489;-61
2023/04/29 07:43:44;;;;;;;29.00;24.20;;;9.80;99.90;;;;;;5076620;28;20445;-59
2023/04/29 07:46:11;;;;;;;32.50;25.47;;;9.80;99.90;;;;;;5078123;28;20540;-59
2023/04/29 07:48:41;;;;;;;29.73;24.00;;;9.70;99.90;;;;;;5080680;28;20463;-62
2023/04/29 07:51:13;;;;;;;29.67;24.70;;;9.60;99.90;;;;;;5080485;28;20468;-62
2023/04/29 07:53:40;;;;;;;30.43;25.50;;;9.50;99.90;;;;;;5081375;28;20465;-62
2023/04/29 07:56:09;;;;;;;35.43;27.77;;;9.60;99.90;;;;;;5080555;28;20874;-62
2023/04/29 07:58:37;;;;;;;34.77;27.20;;;9.60;99.90;;;;;;5080540;28;20551;-61
2023/04/29 08:01:09;;;;;;;34.20;26.97;;;9.60;99.90;;;;;;5079866;28;20790;-59
2023/04/29 08:03:36;;;;;;;34.00;27.13;;;9.50;99.90;;;;;;5081248;28;20904;-60
2023/04/29 08:06:03;;;;;;;29.60;25.10;;;9.50;99.90;;;;;;5080868;28;20961;-62
2023/04/29 08:08:31;;;;;;;29.97;26.70;;;9.50;99.90;;;;;;5080389;28;20457;-60
2023/04/29 08:10:58;;;;;;;31.07;25.57;;;9.50;99.90;;;;;;5080724;28;20491;-62
2023/04/29 08:13:26;;;;;;;31.73;25.10;;;9.50;99.90;;;;;;5080912;28;20515;-61
2023/04/29 08:15:54;;;;;;;33.50;26.10;;;9.50;99.90;;;;;;5080453;28;20471;-61
2023/04/29 08:18:21;;;;;;;27.97;23.27;;;9.50;99.90;;;;;;5079715;28;20496;-61
2023/04/29 08:20:50;;;;;;;32.03;23.57;;;9.50;99.90;;;;;;5080391;28;20745;-61
2023/04/29 08:23:17;;;;;;;30.20;23.47;;;9.40;99.90;;;;;;5080716;28;20757;-63
2023/04/29 08:25:44;;;;;;;26.77;23.17;;;9.40;99.90;;;;;;5080347;28;20782;-62
2023/04/29 08:28:11;;;;;;;27.27;21.70;;;9.50;99.90;;;;;;5079670;28;20534;-63
2023/04/29 08:30:40;;;;;;;24.07;19.40;;;9.50;99.90;;;;;;5080040;28;20446;-63
2023/04/29 08:33:11;;;;;;;23.80;19.63;;;9.50;99.90;;;;;;5080343;28;20475;-63
2023/04/29 08:35:39;;;;;;;29.10;20.97;;;9.50;99.90;;;;;;5079899;28;20469;-65
2023/04/29 08:38:06;;;;;;;22.73;19.87;;;9.50;99.90;;;;;;5080471;28;20486;-66
2023/04/29 08:40:41;;;;;;;21.97;19.60;;;9.50;99.90;;;;;;5080026;28;20556;-66
2023/04/29 08:43:09;;;;;;;22.97;20.50;;;9.60;99.90;;;;;;5079851;28;20464;-65
2023/04/29 08:45:38;;;;;;;26.97;21.50;;;9.60;99.90;;;;;;5079076;28;20479;-64
2023/04/29 08:48:06;;;;;;;24.43;21.83;;;9.50;99.90;;;;;;5078740;28;20544;-64
2023/04/29 08:50:38;;;;;;;28.13;23.47;;;9.70;99.90;;;;;;5077963;28;20546;-63
2023/04/29 08:53:06;;;;;;;31.13;25.50;;;9.60;99.90;;;;;;5077591;28;20466;-64
2023/04/29 08:55:35;;;;;;;30.00;24.73;;;9.50;99.90;;;;;;5066762;28;20474;-64
2023/04/29 08:58:03;;;;;;;28.50;23.83;;;9.50;99.90;;;;;;5076668;28;20489;-63
2023/04/29 09:00:32;;;;;;;29.90;25.27;;;9.50;99.90;;;;;;5077408;28;20547;-63
2023/04/29 09:03:04;;;;;;;34.03;25.27;;;9.50;99.90;;;;;;5076790;28;20486;-63
2023/04/29 09:05:35;;;;;;;33.90;27.70;;;9.50;99.90;;;;;;5074684;28;20474;-63
2023/04/29 09:08:05;;;;;;;39.57;30.50;;;9.50;99.90;;;;;;5073761;28;20469;-64
2023/04/29 09:10:33;;;;;;;40.93;30.87;;;9.40;99.90;;;;;;5079525;28;20507;-64
2023/04/29 09:13:00;;;;;;;42.77;31.30;;;9.40;99.90;;;;;;5079135;28;20796;-63
2023/04/29 09:15:28;;;;;;;41.13;31.60;;;9.40;99.90;;;;;;5077990;28;20461;-64
2023/04/29 09:17:55;;;;;;;41.10;32.40;;;9.30;99.90;;;;;;5077679;28;20580;-63
2023/04/29 09:20:32;;;;;;;44.83;33.53;;;9.30;99.90;;;;;;5077781;28;20464;-64
2023/04/29 09:23:02;;;;;;;43.70;31.73;;;9.30;99.90;;;;;;5076584;28;20547;-63
2023/04/29 09:25:31;;;;;;;44.73;33.33;;;9.30;99.90;;;;;;5076741;28;20867;-64
2023/04/29 09:27:59;;;;;;;46.10;34.73;;;9.30;99.90;;;;;;5076895;28;20965;-64
2023/04/29 09:30:26;;;;;;;48.93;34.60;;;9.30;99.90;;;;;;5078089;28;20457;-64
2023/04/29 09:33:08;;;;;;;50.53;35.30;;;9.50;99.90;;;;;;5078485;28;20534;-64
2023/04/29 09:35:35;;;;;;;43.53;31.93;;;9.40;99.90;;;;;;5078973;28;20552;-64
2023/04/29 09:38:10;;;;;;;47.63;35.93;;;9.30;99.90;;;;;;5078117;28;20993;-64
2023/04/29 09:40:40;;;;;;;46.00;33.93;;;9.30;99.90;;;;;;5077699;28;20741;-64
2023/04/29 09:43:13;;;;;;;44.30;31.80;;;9.40;99.90;;;;;;5077436;28;20463;-64
2023/04/29 09:45:42;;;;;;;41.17;29.50;;;9.50;99.90;;;;;;5076894;28;20707;-63
2023/04/29 09:48:10;;;;;;;41.33;30.40;;;9.30;99.90;;;;;;5076865;28;20523;-63
2023/04/29 09:50:38;;;;;;;42.50;29.67;;;9.30;99.90;;;;;;5077328;28;20766;-64
2023/04/29 09:53:07;;;;;;;38.00;26.57;;;9.30;99.90;;;;;;5077877;28;20443;-63
2023/04/29 09:55:35;;;;;;;41.73;29.17;;;9.30;99.90;;;;;;5078772;28;20507;-63
2023/04/29 09:58:04;;;;;;;36.80;29.70;;;9.40;99.90;;;;;;5077420;28;20545;-64
2023/04/29 10:00:33;;;;;;;42.10;29.43;;;9.40;99.90;;;;;;5058137;28;20462;-63
2023/04/29 10:03:01;;;;;;;41.83;30.03;;;9.60;99.90;;;;;;5056780;28;20977;-63
2023/04/29 10:05:30;;;;;;;41.77;31.00;;;9.70;99.90;;;;;;5058455;28;20830;-63
2023/04/29 10:07:59;;;;;;;44.70;32.27;;;9.70;99.90;;;;;;5056805;28;20466;-63
2023/04/29 10:10:28;;;;;;;44.73;31.43;;;9.60;99.90;;;;;;5056998;28;20733;-63
2023/04/29 10:12:56;;;;;;;49.57;32.10;;;9.50;99.90;;;;;;5057817;28;20461;-63
2023/04/29 10:15:29;;;;;;;48.43;31.20;;;9.50;99.90;;;;;;5057795;28;20506;-63
2023/04/29 10:18:07;;;;;;;49.67;31.13;;;9.40;99.90;;;;;;5057227;28;20498;-63
2023/04/29 10:20:37;;;;;;;52.60;34.80;;;9.40;99.90;;;;;;5056165;28;20466;-63
2023/04/29 10:23:04;;;;;;;49.27;33.53;;;9.50;99.90;;;;;;5067406;28;20790;-63
2023/04/29 10:25:33;;;;;;;48.57;34.50;;;9.50;99.90;;;;;;5075422;28;20808;-63
2023/04/29 10:28:03;;;;;;;49.37;34.53;;;9.60;99.90;;;;;;5074077;28;20500;-63
2023/04/29 10:30:32;;;;;;;56.20;36.67;;;9.50;99.90;;;;;;5074557;28;20465;-63
2023/04/29 10:33:02;;;;;;;53.40;33.30;;;9.50;99.90;;;;;;5074687;28;20501;-63
2023/04/29 10:35:29;;;;;;;53.17;33.70;;;9.40;99.90;;;;;;5074982;28;20465;-63
2023/04/29 10:38:01;;;;;;;48.90;33.67;;;9.50;99.90;;;;;;5076414;28;20472;-63
2023/04/29 10:40:36;;;;;;;54.60;35.20;;;9.60;99.90;;;;;;5077392;28;20461;-63
2023/04/29 10:43:04;;;;;;;49.20;35.00;;;9.70;99.90;;;;;;5077756;28;20460;-62
2023/04/29 10:45:34;;;;;;;58.17;36.27;;;9.60;99.90;;;;;;5077618;28;20436;-62
2023/04/29 10:48:15;;;;;;;61.00;34.00;;;9.80;99.90;;;;;;5077842;28;20483;-62
2023/04/29 10:51:01;;;;;;;55.07;34.47;;;9.70;99.90;;;;;;5075738;28;20576;-62
2023/04/29 10:53:29;;;;;;;55.80;36.10;;;9.80;99.90;;;;;;5077230;28;20865;-62
2023/04/29 10:55:59;;;;;;;49.60;34.20;;;10.00;99.90;;;;;;5077684;28;20496;-62
2023/04/29 10:58:42;;;;;;;49.30;35.67;;;10.20;99.90;;;;;;5077625;28;20489;-62
2023/04/29 11:01:13;;;;;;;51.90;35.07;;;10.10;99.90;;;;;;5077966;28;20472;-62
2023/04/29 11:03:53;;;;;;;49.10;34.57;;;10.20;99.90;;;;;;5077919;28;20496;-62
2023/04/29 11:06:23;;;;;;;48.50;34.07;;;10.30;99.90;;;;;;5076711;28;20461;-62
2023/04/29 11:09:02;;;;;;;42.93;30.07;;;10.70;99.90;;;;;;5076538;28;20461;-62
2023/04/29 11:11:48;;;;;;;41.40;31.27;;;11.20;99.90;;;;;;5076973;28;20464;-62
2023/04/29 11:14:22;;;;;;;40.80;31.07;;;11.30;99.90;;;;;;5076126;28;20461;-62
2023/04/29 11:16:52;;;;;;;48.23;31.53;;;11.40;99.90;;;;;;5073205;28;20556;-63
2023/04/29 11:19:19;;;;;;;40.50;31.50;;;11.60;99.90;;;;;;5075632;28;20618;-62
2023/04/29 11:21:47;;;;;;;39.57;30.67;;;11.70;99.90;;;;;;5074870;28;20897;-63
2023/04/29 11:24:16;;;;;;;37.53;28.40;;;11.50;99.90;;;;;;5075519;28;20453;-63
2023/04/29 11:26:45;;;;;;;37.00;30.47;;;11.40;99.90;;;;;;5075956;28;20552;-63
2023/04/29 11:29:12;;;;;;;41.03;31.10;;;11.70;99.90;;;;;;5076686;28;20486;-63
2023/04/29 11:31:39;;;;;;;38.93;30.27;;;12.00;99.90;;;;;;5076856;28;20481;-63
2023/04/29 11:34:08;;;;;;;35.40;27.33;;;12.10;99.90;;;;;;5076634;28;20462;-64
2023/04/29 11:36:36;;;;;;;38.80;29.87;;;12.00;99.90;;;;;;5077028;28;20897;-64
2023/04/29 11:39:04;;;;;;;34.00;27.40;;;12.20;99.90;;;;;;5077099;28;20588;-64
2023/04/29 11:41:32;;;;;;;34.63;28.60;;;12.10;99.90;;;;;;5077449;28;20461;-64
2023/04/29 11:44:00;;;;;;;32.00;27.33;;;12.00;99.90;;;;;;5077181;28;20560;-65
2023/04/29 11:46:31;;;;;;;36.13;27.10;;;12.30;99.90;;;;;;5076637;28;20461;-65
2023/04/29 11:48:59;;;;;;;33.50;25.60;;;12.40;99.90;;;;;;5077070;28;20560;-65
2023/04/29 11:51:28;;;;;;;33.03;25.50;;;12.70;99.90;;;;;;5076477;28;20468;-65
2023/04/29 11:53:57;;;;;;;31.07;26.90;;;13.10;76.50;;;;;;5077417;28;20492;-65
2023/04/29 11:56:25;;;;;;;29.63;25.53;;;13.40;1.00;;;;;;5076743;28;20476;-65
2023/04/29 11:58:55;;;;;;;28.17;25.07;;;13.60;1.00;;;;;;5076730;28;20790;-65
2023/04/29 12:01:23;;;;;;;34.23;27.13;;;13.50;1.00;;;;;;5074920;28;20914;-65
2023/04/29 12:03:50;;;;;;;29.43;26.03;;;13.10;1.00;;;;;;5076455;28;20882;-65
2023/04/29 12:06:17;;;;;;;35.93;26.03;;;13.00;1.00;;;;;;5076543;28;20887;-64
2023/04/29 12:08:47;;;;;;;27.97;24.07;;;13.20;1.00;;;;;;5076700;28;20543;-64
2023/04/29 12:11:15;;;;;;;32.80;24.10;;;13.40;1.00;;;;;;5076669;28;20465;-64
2023/04/29 12:13:42;;;;;;;29.23;22.10;;;13.30;1.00;;;;;;5076770;28;20903;-64
2023/04/29 12:16:10;;;;;;;25.10;21.10;;;13.20;1.00;;;;;;5076451;28;20492;-64
2023/04/29 12:18:37;;;;;;;24.40;21.80;;;13.20;1.00;;;;;;5076367;28;20493;-64
2023/04/29 12:21:05;;;;;;;29.80;22.77;;;13.20;1.00;;;;;;5076983;28;20484;-64
2023/04/29 12:23:32;;;;;;;25.50;21.90;;;13.60;1.00;;;;;;5077128;28;20793;-64
2023/04/29 12:26:01;;;;;;;23.10;20.07;;;13.90;1.00;;;;;;5076733;28;20500;-64
2023/04/29 12:28:29;;;;;;;23.60;19.10;;;14.10;1.00;;;;;;5076306;28;20606;-64
2023/04/29 12:30:58;;;;;;;25.60;19.97;;;14.10;1.00;;;;;;5076490;28;20955;-64
2023/04/29 12:33:27;;;;;;;22.90;19.00;;;13.80;1.00;;;;;;5077728;28;20457;-64
2023/04/29 12:35:56;;;;;;;24.20;20.37;;;13.80;1.00;;;;;;5080537;28;20862;-64
2023/04/29 12:38:26;;;;;;;25.00;22.30;;;13.60;1.00;;;;;;5080065;28;20944;-64
2023/04/29 12:40:53;;;;;;;25.80;22.70;;;13.10;1.00;;;;;;5080120;28;20463;-64